sensor_id;sensor_type;location;lat;lon;timestamp;P1;durP1;ratioP1;P2;durP2;ratioP2
8171;SDS011;4127;47.908;10.850;2023-07-28T07:05:52;2.27;;;2.07;;
8171;SDS011;4127;47.908;10.850;2023-07-28T07:08:19;2.33;;;2.13;;
8171;SDS011;4127;47.908;10.850;2023-07-28T07:10:50;2.20;;;2.00;;
8171;SDS011;4127;47.908;10.850;2023-07-28T07:13:17;2.37;;;2.10;;
8171;SDS011;4127;47.908;10.850;2023-07-28T07:15:45;2.30;;;2.10;;
8171;SDS011;4127;47.908;10.850;2023-07-28T07:18:12;2.47;;;2.20;;
8171;SDS011;4127;47.908;10.850;2023-07-28T07:20:39;2.17;;;2.00;;
8171;SDS011;4127;47.908;10.850;2023-07-28T07:23:06;2.23;;;2.03;;
8171;SDS011;4127;47.908;10.850;2023-07-28T07:25:34;3.10;;;2.20;;
8171;SDS011;4127;47.908;10.850;2023-07-28T07:28:03;2.00;;;1.90;;
8171;SDS011;4127;47.908;10.850;2023-07-28T07:30:32;3.20;;;2.23;;
8171;SDS011;4127;47.908;10.850;2023-07-28T07:33:00;2.30;;;2.10;;
8171;SDS011;4127;47.908;10.850;2023-07-28T07:35:27;2.80;;;2.27;;
8171;SDS011;4127;47.908;10.850;2023-07-28T07:37:54;2.70;;;2.30;;
8171;SDS011;4127;47.908;10.850;2023-07-28T07:40:21;2.60;;;2.40;;
8171;SDS011;4127;47.908;10.850;2023-07-28T07:42:48;2.30;;;2.10;;
8171;SDS011;4127;47.908;10.850;2023-07-28T07:45:15;2.73;;;2.30;;
8171;SDS011;4127;47.908;10.850;2023-07-28T07:47:42;2.67;;;2.47;;
8171;SDS011;4127;47.908;10.850;2023-07-28T07:50:10;2.20;;;2.00;;
8171;SDS011;4127;47.908;10.850;2023-07-28T07:52:37;2.60;;;2.40;;
8171;SDS011;4127;47.908;10.850;2023-07-28T07:55:08;2.58;;;2.33;;
8171;SDS011;4127;47.908;10.850;2023-07-28T07:57:38;3.70;;;2.57;;
8171;SDS011;4127;47.908;10.850;2023-07-28T08:00:05;2.40;;;2.20;;
8171;SDS011;4127;47.908;10.850;2023-07-28T08:02:32;2.23;;;2.13;;
8171;SDS011;4127;47.908;10.850;2023-07-28T08:04:59;2.20;;;2.00;;
8171;SDS011;4127;47.908;10.850;2023-07-28T08:07:26;2.40;;;2.20;;
8171;SDS011;4127;47.908;10.850;2023-07-28T08:09:53;2.20;;;2.00;;
8171;SDS011;4127;47.908;10.850;2023-07-28T08:12:20;2.85;;;2.20;;
8171;SDS011;4127;47.908;10.850;2023-07-28T08:14:47;2.10;;;2.00;;
8171;SDS011;4127;47.908;10.850;2023-07-28T08:17:14;2.78;;;2.30;;
8171;SDS011;4127;47.908;10.850;2023-07-28T08:19:41;2.47;;;2.28;;
8171;SDS011;4127;47.908;10.850;2023-07-28T08:22:08;2.15;;;2.00;;
8171;SDS011;4127;47.908;10.850;2023-07-28T08:24:35;2.42;;;2.15;;
8171;SDS011;4127;47.908;10.850;2023-07-28T08:27:02;2.60;;;2.40;;
8171;SDS011;4127;47.908;10.850;2023-07-28T08:29:30;2.30;;;2.10;;
8171;SDS011;4127;47.908;10.850;2023-07-28T08:31:56;2.42;;;2.22;;
8171;SDS011;4127;47.908;10.850;2023-07-28T08:34:23;2.40;;;2.20;;
8171;SDS011;4127;47.908;10.850;2023-07-28T08:36:50;2.33;;;2.13;;
8171;SDS011;4127;47.908;10.850;2023-07-28T08:39:17;2.75;;;2.55;;
8171;SDS011;4127;47.908;10.850;2023-07-28T08:41:44;2.65;;;2.45;;
8171;SDS011;4127;47.908;10.850;2023-07-28T08:44:11;2.40;;;2.20;;
8171;SDS011;4127;47.908;10.850;2023-07-28T08:46:38;2.47;;;2.28;;
8171;SDS011;4127;47.908;10.850;2023-07-28T08:49:05;2.78;;;2.58;;
8171;SDS011;4127;47.908;10.850;2023-07-28T08:51:32;2.38;;;2.17;;
8171;SDS011;4127;47.908;10.850;2023-07-28T08:53:59;3.63;;;2.80;;
8171;SDS011;4127;47.908;10.850;2023-07-28T08:56:26;2.53;;;2.33;;
8171;SDS011;4127;47.908;10.850;2023-07-28T08:58:57;3.33;;;2.97;;
8171;SDS011;4127;47.908;10.850;2023-07-28T09:01:25;2.80;;;2.60;;
8171;SDS011;4127;47.908;10.850;2023-07-28T09:03:52;3.28;;;3.00;;
8171;SDS011;4127;47.908;10.850;2023-07-28T09:06:19;2.83;;;2.63;;
8171;SDS011;4127;47.908;10.850;2023-07-28T09:08:56;3.03;;;2.80;;
8171;SDS011;4127;47.908;10.850;2023-07-28T09:11:24;2.35;;;2.15;;
8171;SDS011;4127;47.908;10.850;2023-07-28T09:13:53;3.13;;;2.33;;
8171;SDS011;4127;47.908;10.850;2023-07-28T09:16:22;2.90;;;2.60;;
8171;SDS011;4127;47.908;10.850;2023-07-28T09:18:54;3.10;;;2.83;;
8171;SDS011;4127;47.908;10.850;2023-07-28T09:21:34;3.05;;;2.38;;
8171;SDS011;4127;47.908;10.850;2023-07-28T09:24:20;3.05;;;2.85;;
8171;SDS011;4127;47.908;10.850;2023-07-28T09:26:48;3.05;;;2.75;;
8171;SDS011;4127;47.908;10.850;2023-07-28T09:29:18;2.70;;;2.50;;
8171;SDS011;4127;47.908;10.850;2023-07-28T09:31:47;2.83;;;2.55;;
8171;SDS011;4127;47.908;10.850;2023-07-28T09:34:27;2.72;;;2.53;;
8171;SDS011;4127;47.908;10.850;2023-07-28T09:36:55;2.92;;;2.70;;
8171;SDS011;4127;47.908;10.850;2023-07-28T09:39:24;2.30;;;2.10;;
8171;SDS011;4127;47.908;10.850;2023-07-28T09:41:52;2.22;;;2.03;;
8171;SDS011;4127;47.908;10.850;2023-07-28T09:44:23;3.75;;;2.30;;
8171;SDS011;4127;47.908;10.850;2023-07-28T09:46:51;4.85;;;3.65;;
8171;SDS011;4127;47.908;10.850;2023-07-28T09:49:32;4.18;;;3.15;;
8171;SDS011;4127;47.908;10.850;2023-07-28T09:52:06;2.85;;;2.47;;
8171;SDS011;4127;47.908;10.850;2023-07-28T09:54:40;2.40;;;2.20;;
8171;SDS011;4127;47.908;10.850;2023-07-28T09:57:12;4.05;;;3.65;;
8171;SDS011;4127;47.908;10.850;2023-07-28T09:59:40;2.70;;;2.50;;
8171;SDS011;4127;47.908;10.850;2023-07-28T10:02:10;2.28;;;2.08;;
8171;SDS011;4127;47.908;10.850;2023-07-28T10:04:37;2.97;;;2.25;;
8171;SDS011;4127;47.908;10.850;2023-07-28T10:07:04;2.63;;;2.42;;
8171;SDS011;4127;47.908;10.850;2023-07-28T10:09:33;3.10;;;2.65;;
8171;SDS011;4127;47.908;10.850;2023-07-28T10:12:01;3.08;;;2.35;;
8171;SDS011;4127;47.908;10.850;2023-07-28T10:14:30;2.65;;;2.15;;
8171;SDS011;4127;47.908;10.850;2023-07-28T10:17:01;2.50;;;2.30;;
8171;SDS011;4127;47.908;10.850;2023-07-28T10:19:37;2.10;;;2.00;;
8171;SDS011;4127;47.908;10.850;2023-07-28T10:22:10;2.60;;;2.40;;
8171;SDS011;4127;47.908;10.850;2023-07-28T10:27:43;2.33;;;2.13;;
8171;SDS011;4127;47.908;10.850;2023-07-28T10:30:13;2.72;;;2.53;;
8171;SDS011;4127;47.908;10.850;2023-07-28T10:32:41;2.25;;;2.15;;
8171;SDS011;4127;47.908;10.850;2023-07-28T10:37:44;3.28;;;2.40;;
8171;SDS011;4127;47.908;10.850;2023-07-28T10:40:31;2.10;;;2.00;;
8171;SDS011;4127;47.908;10.850;2023-07-28T10:42:58;2.95;;;2.75;;
8171;SDS011;4127;47.908;10.850;2023-07-28T10:45:26;2.60;;;2.40;;
8171;SDS011;4127;47.908;10.850;2023-07-28T10:47:54;2.63;;;2.42;;
8171;SDS011;4127;47.908;10.850;2023-07-28T10:50:23;3.17;;;2.92;;
8171;SDS011;4127;47.908;10.850;2023-07-28T10:52:50;2.72;;;2.53;;
8171;SDS011;4127;47.908;10.850;2023-07-28T10:55:20;2.45;;;2.25;;
8171;SDS011;4127;47.908;10.850;2023-07-28T10:57:49;2.97;;;2.40;;
8171;SDS011;4127;47.908;10.850;2023-07-28T11:00:20;2.83;;;2.60;;
8171;SDS011;4127;47.908;10.850;2023-07-28T11:02:49;2.38;;;2.15;;
8171;SDS011;4127;47.908;10.850;2023-07-28T11:07:56;2.60;;;2.40;;
8171;SDS011;4127;47.908;10.850;2023-07-28T11:10:25;2.83;;;2.63;;
8171;SDS011;4127;47.908;10.850;2023-07-28T11:12:57;2.60;;;2.40;;
8171;SDS011;4127;47.908;10.850;2023-07-28T11:15:41;2.80;;;2.60;;
8171;SDS011;4127;47.908;10.850;2023-07-28T11:18:08;3.25;;;2.50;;
8171;SDS011;4127;47.908;10.850;2023-07-28T11:20:36;3.78;;;2.83;;
8171;SDS011;4127;47.908;10.850;2023-07-28T11:23:03;2.65;;;2.45;;
8171;SDS011;4127;47.908;10.850;2023-07-28T11:25:31;2.60;;;2.40;;
8171;SDS011;4127;47.908;10.850;2023-07-28T11:28:02;2.58;;;2.35;;
8171;SDS011;4127;47.908;10.850;2023-07-28T11:30:33;2.75;;;2.55;;
8171;SDS011;4127;47.908;10.850;2023-07-28T11:33:07;3.03;;;2.67;;
8171;SDS011;4127;47.908;10.850;2023-07-28T11:35:37;2.90;;;2.55;;
8171;SDS011;4127;47.908;10.850;2023-07-28T11:38:05;2.67;;;2.47;;
8171;SDS011;4127;47.908;10.850;2023-07-28T11:40:34;2.70;;;2.50;;
8171;SDS011;4127;47.908;10.850;2023-07-28T11:43:01;2.95;;;2.50;;
8171;SDS011;4127;47.908;10.850;2023-07-28T11:45:29;3.33;;;2.47;;
8171;SDS011;4127;47.908;10.850;2023-07-28T11:47:56;2.78;;;2.58;;
8171;SDS011;4127;47.908;10.850;2023-07-28T11:50:25;3.40;;;3.10;;
8171;SDS011;4127;47.908;10.850;2023-07-28T11:52:54;4.13;;;2.65;;
8171;SDS011;4127;47.908;10.850;2023-07-28T11:55:22;2.95;;;2.50;;
8171;SDS011;4127;47.908;10.850;2023-07-28T11:57:53;3.50;;;2.90;;
8171;SDS011;4127;47.908;10.850;2023-07-28T12:00:30;3.60;;;2.70;;
8171;SDS011;4127;47.908;10.850;2023-07-28T12:03:10;2.83;;;2.40;;
8171;SDS011;4127;47.908;10.850;2023-07-28T12:05:49;2.97;;;2.78;;
8171;SDS011;4127;47.908;10.850;2023-07-28T12:08:34;3.17;;;2.85;;
8171;SDS011;4127;47.908;10.850;2023-07-28T12:11:01;3.28;;;2.97;;
8171;SDS011;4127;47.908;10.850;2023-07-28T12:13:31;2.97;;;2.70;;
8171;SDS011;4127;47.908;10.850;2023-07-28T12:15:58;2.80;;;2.60;;
8171;SDS011;4127;47.908;10.850;2023-07-28T12:18:31;3.00;;;2.80;;
8171;SDS011;4127;47.908;10.850;2023-07-28T12:21:01;2.95;;;2.50;;
8171;SDS011;4127;47.908;10.850;2023-07-28T12:23:29;3.22;;;2.78;;
8171;SDS011;4127;47.908;10.850;2023-07-28T12:25:59;2.53;;;2.33;;
8171;SDS011;4127;47.908;10.850;2023-07-28T12:28:26;3.10;;;2.80;;
8171;SDS011;4127;47.908;10.850;2023-07-28T12:30:53;2.92;;;2.70;;
8171;SDS011;4127;47.908;10.850;2023-07-28T12:33:22;3.40;;;3.08;;
8171;SDS011;4127;47.908;10.850;2023-07-28T12:36:04;2.83;;;2.60;;
8171;SDS011;4127;47.908;10.850;2023-07-28T12:38:35;2.72;;;2.53;;
8171;SDS011;4127;47.908;10.850;2023-07-28T12:41:05;2.40;;;2.20;;
8171;SDS011;4127;47.908;10.850;2023-07-28T12:43:35;2.67;;;2.47;;
8171;SDS011;4127;47.908;10.850;2023-07-28T12:46:05;3.00;;;2.72;;
8171;SDS011;4127;47.908;10.850;2023-07-28T12:48:34;3.33;;;3.03;;
8171;SDS011;4127;47.908;10.850;2023-07-28T12:51:13;2.85;;;2.63;;
8171;SDS011;4127;47.908;10.850;2023-07-28T12:54:00;2.97;;;2.67;;
8171;SDS011;4127;47.908;10.850;2023-07-28T12:56:27;2.65;;;2.45;;
8171;SDS011;4127;47.908;10.850;2023-07-28T12:58:57;2.97;;;2.60;;
8171;SDS011;4127;47.908;10.850;2023-07-28T13:01:26;3.03;;;2.78;;
8171;SDS011;4127;47.908;10.850;2023-07-28T13:03:53;2.60;;;2.40;;
8171;SDS011;4127;47.908;10.850;2023-07-28T13:06:20;2.83;;;2.63;;
8171;SDS011;4127;47.908;10.850;2023-07-28T13:08:47;2.70;;;2.50;;
8171;SDS011;4127;47.908;10.850;2023-07-28T13:11:17;2.72;;;2.53;;
8171;SDS011;4127;47.908;10.850;2023-07-28T13:13:44;2.95;;;2.67;;
8171;SDS011;4127;47.908;10.850;2023-07-28T13:16:11;2.83;;;2.63;;
8171;SDS011;4127;47.908;10.850;2023-07-28T13:18:38;2.47;;;2.28;;
8171;SDS011;4127;47.908;10.850;2023-07-28T13:21:06;3.00;;;2.72;;
8171;SDS011;4127;47.908;10.850;2023-07-28T13:23:33;3.67;;;3.38;;
8171;SDS011;4127;47.908;10.850;2023-07-28T13:26:00;3.40;;;3.10;;
8171;SDS011;4127;47.908;10.850;2023-07-28T13:28:26;3.10;;;2.90;;
8171;SDS011;4127;47.908;10.850;2023-07-28T13:30:53;2.85;;;2.65;;
8171;SDS011;4127;47.908;10.850;2023-07-28T13:33:20;3.15;;;2.88;;
8171;SDS011;4127;47.908;10.850;2023-07-28T13:35:48;3.20;;;2.90;;
8171;SDS011;4127;47.908;10.850;2023-07-28T13:38:15;3.22;;;2.67;;
8171;SDS011;4127;47.908;10.850;2023-07-28T13:40:42;2.72;;;2.53;;
8171;SDS011;4127;47.908;10.850;2023-07-28T13:43:09;2.45;;;2.33;;
8171;SDS011;4127;47.908;10.850;2023-07-28T13:45:43;3.47;;;3.15;;
8171;SDS011;4127;47.908;10.850;2023-07-28T13:48:10;2.63;;;2.42;;
8171;SDS011;4127;47.908;10.850;2023-07-28T13:50:51;3.03;;;2.83;;
8171;SDS011;4127;47.908;10.850;2023-07-28T13:53:22;2.83;;;2.63;;
8171;SDS011;4127;47.908;10.850;2023-07-28T13:55:52;2.78;;;2.50;;
8171;SDS011;4127;47.908;10.850;2023-07-28T13:58:22;3.60;;;3.17;;
8171;SDS011;4127;47.908;10.850;2023-07-28T14:00:51;2.80;;;2.60;;
8171;SDS011;4127;47.908;10.850;2023-07-28T14:03:17;3.05;;;2.80;;
8171;SDS011;4127;47.908;10.850;2023-07-28T14:05:45;3.35;;;3.00;;
8171;SDS011;4127;47.908;10.850;2023-07-28T14:08:13;3.20;;;3.00;;
8171;SDS011;4127;47.908;10.850;2023-07-28T14:10:44;2.80;;;2.60;;
8171;SDS011;4127;47.908;10.850;2023-07-28T14:13:11;3.03;;;2.80;;
8171;SDS011;4127;47.908;10.850;2023-07-28T14:15:39;2.85;;;2.65;;
8171;SDS011;4127;47.908;10.850;2023-07-28T14:18:06;2.92;;;2.72;;
8171;SDS011;4127;47.908;10.850;2023-07-28T14:20:34;3.15;;;2.85;;
8171;SDS011;4127;47.908;10.850;2023-07-28T14:23:01;2.70;;;2.50;;
8171;SDS011;4127;47.908;10.850;2023-07-28T14:25:28;2.88;;;2.58;;
8171;SDS011;4127;47.908;10.850;2023-07-28T14:27:55;3.10;;;2.90;;
8171;SDS011;4127;47.908;10.850;2023-07-28T14:30:22;3.13;;;2.83;;
8171;SDS011;4127;47.908;10.850;2023-07-28T14:32:48;2.90;;;2.70;;
8171;SDS011;4127;47.908;10.850;2023-07-28T14:35:15;2.65;;;2.45;;
8171;SDS011;4127;47.908;10.850;2023-07-28T14:37:42;3.30;;;3.05;;
8171;SDS011;4127;47.908;10.850;2023-07-28T14:40:09;3.20;;;3.00;;
8171;SDS011;4127;47.908;10.850;2023-07-28T14:42:37;2.80;;;2.60;;
8171;SDS011;4127;47.908;10.850;2023-07-28T14:45:05;2.70;;;2.50;;
8171;SDS011;4127;47.908;10.850;2023-07-28T14:47:32;2.88;;;2.40;;
8171;SDS011;4127;47.908;10.850;2023-07-28T14:49:59;3.15;;;2.95;;
8171;SDS011;4127;47.908;10.850;2023-07-28T14:52:26;3.30;;;3.00;;
8171;SDS011;4127;47.908;10.850;2023-07-28T14:54:53;3.20;;;3.00;;
8171;SDS011;4127;47.908;10.850;2023-07-28T14:57:20;3.08;;;2.78;;
8171;SDS011;4127;47.908;10.850;2023-07-28T15:00:00;4.18;;;3.10;;
8171;SDS011;4127;47.908;10.850;2023-07-28T15:02:27;4.03;;;3.25;;
8171;SDS011;4127;47.908;10.850;2023-07-28T15:04:54;2.85;;;2.65;;
8171;SDS011;4127;47.908;10.850;2023-07-28T15:07:21;2.72;;;2.53;;
8171;SDS011;4127;47.908;10.850;2023-07-28T15:09:49;3.35;;;3.13;;
8171;SDS011;4127;47.908;10.850;2023-07-28T15:12:16;3.00;;;2.80;;
8171;SDS011;4127;47.908;10.850;2023-07-28T15:14:42;2.95;;;2.70;;
8171;SDS011;4127;47.908;10.850;2023-07-28T15:17:09;3.40;;;3.10;;
8171;SDS011;4127;47.908;10.850;2023-07-28T15:19:37;3.22;;;3.00;;
8171;SDS011;4127;47.908;10.850;2023-07-28T15:22:04;2.92;;;2.72;;
8171;SDS011;4127;47.908;10.850;2023-07-28T15:24:31;3.17;;;2.95;;
8171;SDS011;4127;47.908;10.850;2023-07-28T15:26:58;2.95;;;2.75;;
8171;SDS011;4127;47.908;10.850;2023-07-28T15:29:25;3.17;;;2.90;;
8171;SDS011;4127;47.908;10.850;2023-07-28T15:31:52;3.67;;;3.13;;
8171;SDS011;4127;47.908;10.850;2023-07-28T15:34:20;4.22;;;3.15;;
8171;SDS011;4127;47.908;10.850;2023-07-28T15:36:47;3.45;;;3.15;;
8171;SDS011;4127;47.908;10.850;2023-07-28T15:39:14;3.08;;;2.78;;
8171;SDS011;4127;47.908;10.850;2023-07-28T15:41:41;3.20;;;3.00;;
8171;SDS011;4127;47.908;10.850;2023-07-28T15:44:08;3.50;;;3.20;;
8171;SDS011;4127;47.908;10.850;2023-07-28T15:46:36;2.88;;;2.67;;
8171;SDS011;4127;47.908;10.850;2023-07-28T15:49:03;3.13;;;2.88;;
8171;SDS011;4127;47.908;10.850;2023-07-28T15:51:30;2.83;;;2.63;;
8171;SDS011;4127;47.908;10.850;2023-07-28T15:53:58;3.60;;;3.30;;
8171;SDS011;4127;47.908;10.850;2023-07-28T15:56:25;3.08;;;2.88;;
8171;SDS011;4127;47.908;10.850;2023-07-28T15:58:52;3.30;;;2.97;;
8171;SDS011;4127;47.908;10.850;2023-07-28T16:01:19;3.28;;;2.97;;
8171;SDS011;4127;47.908;10.850;2023-07-28T16:03:46;3.63;;;3.33;;
8171;SDS011;4127;47.908;10.850;2023-07-28T16:06:13;3.70;;;3.40;;
8171;SDS011;4127;47.908;10.850;2023-07-28T16:08:40;3.25;;;3.05;;
8171;SDS011;4127;47.908;10.850;2023-07-28T16:11:07;3.22;;;2.92;;
8171;SDS011;4127;47.908;10.850;2023-07-28T16:13:33;3.60;;;3.30;;
8171;SDS011;4127;47.908;10.850;2023-07-28T16:16:01;3.72;;;2.97;;
8171;SDS011;4127;47.908;10.850;2023-07-28T16:18:28;3.65;;;3.20;;
8171;SDS011;4127;47.908;10.850;2023-07-28T16:20:55;2.90;;;2.70;;
8171;SDS011;4127;47.908;10.850;2023-07-28T16:23:22;3.63;;;3.33;;
8171;SDS011;4127;47.908;10.850;2023-07-28T16:25:48;3.22;;;2.95;;
8171;SDS011;4127;47.908;10.850;2023-07-28T16:28:16;3.20;;;3.00;;
8171;SDS011;4127;47.908;10.850;2023-07-28T16:30:42;3.13;;;2.92;;
8171;SDS011;4127;47.908;10.850;2023-07-28T16:33:12;5.15;;;4.68;;
8171;SDS011;4127;47.908;10.850;2023-07-28T16:35:39;3.70;;;3.40;;
8171;SDS011;4127;47.908;10.850;2023-07-28T16:38:06;3.45;;;2.50;;
8171;SDS011;4127;47.908;10.850;2023-07-28T16:40:33;3.60;;;3.30;;
8171;SDS011;4127;47.908;10.850;2023-07-28T16:43:00;5.00;;;4.53;;
8171;SDS011;4127;47.908;10.850;2023-07-28T16:45:27;4.35;;;3.63;;
8171;SDS011;4127;47.908;10.850;2023-07-28T16:47:54;5.00;;;4.50;;
8171;SDS011;4127;47.908;10.850;2023-07-28T16:50:23;7.25;;;6.40;;
8171;SDS011;4127;47.908;10.850;2023-07-28T16:52:50;3.65;;;3.35;;
8171;SDS011;4127;47.908;10.850;2023-07-28T16:55:17;3.72;;;3.30;;
8171;SDS011;4127;47.908;10.850;2023-07-28T16:57:44;3.58;;;3.28;;
8171;SDS011;4127;47.908;10.850;2023-07-28T17:00:11;5.07;;;4.00;;
8171;SDS011;4127;47.908;10.850;2023-07-28T17:02:38;3.60;;;2.97;;
8171;SDS011;4127;47.908;10.850;2023-07-28T17:05:05;4.20;;;3.67;;
8171;SDS011;4127;47.908;10.850;2023-07-28T17:07:32;3.40;;;3.10;;
8171;SDS011;4127;47.908;10.850;2023-07-28T17:09:59;6.03;;;5.53;;
8171;SDS011;4127;47.908;10.850;2023-07-28T17:12:26;5.85;;;5.07;;
8171;SDS011;4127;47.908;10.850;2023-07-28T17:14:53;6.15;;;5.45;;
8171;SDS011;4127;47.908;10.850;2023-07-28T17:17:20;3.83;;;3.53;;
8171;SDS011;4127;47.908;10.850;2023-07-28T17:19:47;3.17;;;2.92;;
8171;SDS011;4127;47.908;10.850;2023-07-28T17:22:15;3.38;;;3.10;;
8171;SDS011;4127;47.908;10.850;2023-07-28T17:24:41;4.80;;;3.30;;
8171;SDS011;4127;47.908;10.850;2023-07-28T17:27:08;3.60;;;3.30;;
8171;SDS011;4127;47.908;10.850;2023-07-28T17:29:35;3.95;;;3.53;;
8171;SDS011;4127;47.908;10.850;2023-07-28T17:32:02;3.72;;;3.42;;
8171;SDS011;4127;47.908;10.850;2023-07-28T17:34:29;4.35;;;3.92;;
8171;SDS011;4127;47.908;10.850;2023-07-28T17:36:55;3.70;;;3.30;;
8171;SDS011;4127;47.908;10.850;2023-07-28T17:39:23;5.45;;;4.25;;
8171;SDS011;4127;47.908;10.850;2023-07-28T17:41:50;3.90;;;3.28;;
8171;SDS011;4127;47.908;10.850;2023-07-28T17:47:04;3.13;;;2.87;;
8171;SDS011;4127;47.908;10.850;2023-07-28T17:49:31;4.17;;;2.97;;
8171;SDS011;4127;47.908;10.850;2023-07-28T17:51:58;3.30;;;2.57;;
8171;SDS011;4127;47.908;10.850;2023-07-28T17:54:25;3.43;;;2.43;;
8171;SDS011;4127;47.908;10.850;2023-07-28T17:56:54;2.63;;;2.43;;
8171;SDS011;4127;47.908;10.850;2023-07-28T17:59:21;3.23;;;2.90;;
8171;SDS011;4127;47.908;10.850;2023-07-28T18:01:48;2.80;;;2.60;;
8171;SDS011;4127;47.908;10.850;2023-07-28T18:04:15;3.20;;;2.90;;
8171;SDS011;4127;47.908;10.850;2023-07-28T18:06:42;2.83;;;2.63;;
8171;SDS011;4127;47.908;10.850;2023-07-28T18:09:09;3.13;;;2.83;;
8171;SDS011;4127;47.908;10.850;2023-07-28T18:11:36;3.30;;;3.00;;
8171;SDS011;4127;47.908;10.850;2023-07-28T18:14:04;3.43;;;3.20;;
8171;SDS011;4127;47.908;10.850;2023-07-28T18:16:30;4.40;;;4.00;;
8171;SDS011;4127;47.908;10.850;2023-07-28T18:18:57;3.97;;;3.67;;
8171;SDS011;4127;47.908;10.850;2023-07-28T18:21:25;3.50;;;3.30;;
8171;SDS011;4127;47.908;10.850;2023-07-28T18:23:51;3.37;;;3.07;;
8171;SDS011;4127;47.908;10.850;2023-07-28T18:26:18;3.50;;;3.23;;
8171;SDS011;4127;47.908;10.850;2023-07-28T18:28:45;2.80;;;2.60;;
8171;SDS011;4127;47.908;10.850;2023-07-28T18:31:12;2.83;;;2.63;;
8171;SDS011;4127;47.908;10.850;2023-07-28T18:33:39;3.20;;;2.90;;
8171;SDS011;4127;47.908;10.850;2023-07-28T18:36:06;3.77;;;2.87;;
8171;SDS011;4127;47.908;10.850;2023-07-28T18:38:33;4.03;;;3.63;;
8171;SDS011;4127;47.908;10.850;2023-07-28T18:41:00;5.33;;;4.83;;
8171;SDS011;4127;47.908;10.850;2023-07-28T18:43:27;7.93;;;6.63;;
8171;SDS011;4127;47.908;10.850;2023-07-28T18:45:54;5.27;;;4.77;;
8171;SDS011;4127;47.908;10.850;2023-07-28T18:48:21;3.70;;;3.40;;
8171;SDS011;4127;47.908;10.850;2023-07-28T18:50:48;3.43;;;3.13;;
8171;SDS011;4127;47.908;10.850;2023-07-28T18:53:16;3.67;;;3.03;;
8171;SDS011;4127;47.908;10.850;2023-07-28T18:55:43;2.57;;;2.37;;
8171;SDS011;4127;47.908;10.850;2023-07-28T18:58:10;3.13;;;2.83;;
8171;SDS011;4127;47.908;10.850;2023-07-28T19:00:37;3.13;;;2.83;;
8171;SDS011;4127;47.908;10.850;2023-07-28T19:03:04;2.83;;;2.63;;
8171;SDS011;4127;47.908;10.850;2023-07-28T19:05:31;3.10;;;2.80;;
8171;SDS011;4127;47.908;10.850;2023-07-28T19:07:58;3.00;;;2.70;;
8171;SDS011;4127;47.908;10.850;2023-07-28T19:10:25;2.80;;;2.60;;
8171;SDS011;4127;47.908;10.850;2023-07-28T19:12:52;3.33;;;2.80;;
8171;SDS011;4127;47.908;10.850;2023-07-28T19:15:37;3.60;;;3.20;;
8171;SDS011;4127;47.908;10.850;2023-07-28T19:18:07;3.20;;;2.90;;
8171;SDS011;4127;47.908;10.850;2023-07-28T19:20:34;3.10;;;2.80;;
8171;SDS011;4127;47.908;10.850;2023-07-28T19:23:15;3.00;;;2.70;;
8171;SDS011;4127;47.908;10.850;2023-07-28T19:28:50;2.70;;;2.50;;
8171;SDS011;4127;47.908;10.850;2023-07-28T19:31:17;3.20;;;2.90;;
8171;SDS011;4127;47.908;10.850;2023-07-28T19:33:44;2.90;;;2.70;;
8171;SDS011;4127;47.908;10.850;2023-07-28T19:38:58;3.50;;;3.20;;
8171;SDS011;4127;47.908;10.850;2023-07-28T19:41:25;3.00;;;2.80;;
8171;SDS011;4127;47.908;10.850;2023-07-28T19:43:55;3.50;;;3.20;;
8171;SDS011;4127;47.908;10.850;2023-07-28T19:46:23;3.50;;;3.20;;
8171;SDS011;4127;47.908;10.850;2023-07-28T19:48:52;2.87;;;2.60;;
8171;SDS011;4127;47.908;10.850;2023-07-28T19:51:28;3.10;;;2.83;;
8171;SDS011;4127;47.908;10.850;2023-07-28T19:53:55;3.10;;;2.80;;
8171;SDS011;4127;47.908;10.850;2023-07-28T19:56:26;3.30;;;3.00;;
8171;SDS011;4127;47.908;10.850;2023-07-28T19:58:53;2.87;;;2.57;;
8171;SDS011;4127;47.908;10.850;2023-07-28T20:01:21;2.70;;;2.50;;
8171;SDS011;4127;47.908;10.850;2023-07-28T20:03:57;3.17;;;2.87;;
8171;SDS011;4127;47.908;10.850;2023-07-28T20:06:24;2.90;;;2.70;;
8171;SDS011;4127;47.908;10.850;2023-07-28T20:08:52;2.83;;;2.63;;
8171;SDS011;4127;47.908;10.850;2023-07-28T20:11:18;4.03;;;2.90;;
8171;SDS011;4127;47.908;10.850;2023-07-28T20:13:45;2.90;;;2.70;;
8171;SDS011;4127;47.908;10.850;2023-07-28T20:16:12;2.87;;;2.67;;
8171;SDS011;4127;47.908;10.850;2023-07-28T20:18:39;3.27;;;2.97;;
8171;SDS011;4127;47.908;10.850;2023-07-28T20:21:09;3.13;;;2.90;;
8171;SDS011;4127;47.908;10.850;2023-07-28T20:23:36;3.53;;;3.13;;
8171;SDS011;4127;47.908;10.850;2023-07-28T20:26:03;3.00;;;2.70;;
8171;SDS011;4127;47.908;10.850;2023-07-28T20:28:32;3.47;;;3.17;;
8171;SDS011;4127;47.908;10.850;2023-07-28T20:31:19;2.90;;;2.70;;
8171;SDS011;4127;47.908;10.850;2023-07-28T20:33:48;3.30;;;3.00;;
8171;SDS011;4127;47.908;10.850;2023-07-28T20:36:15;2.80;;;2.60;;
8171;SDS011;4127;47.908;10.850;2023-07-28T20:38:42;3.40;;;3.10;;
